createdAt,value
2019-04-03T00:02:27.376Z,10.70
2019-04-03T00:05:06.703Z,10.80
2019-04-03T00:07:46.522Z,10.80
2019-04-03T00:10:24.484Z,10.60
2019-04-03T00:13:02.795Z,10.50
2019-04-03T00:15:39.910Z,10.50
2019-04-03T00:18:20.433Z,10.40
2019-04-03T00:20:58.869Z,10.20
2019-04-03T00:23:37.212Z,10.10
2019-04-03T00:26:15.981Z,9.90
2019-04-03T00:28:52.281Z,9.80
2019-04-03T00:31:42.278Z,9.80
2019-04-03T00:34:22.981Z,9.90
2019-04-03T00:37:12.746Z,10.00
2019-04-03T00:39:49.490Z,10.10
2019-04-03T00:42:26.065Z,10.20
2019-04-03T00:45:05.067Z,10.10
2019-04-03T00:47:40.918Z,10.10
2019-04-03T00:50:09.368Z,10.10
2019-04-03T00:52:37.587Z,10.00
2019-04-03T00:55:08.208Z,9.90
2019-04-03T00:57:39.614Z,9.90
2019-04-03T01:00:14.751Z,9.80
2019-04-03T01:02:44.426Z,9.80
2019-04-03T01:17:35.681Z,9.60
2019-04-03T01:20:06.409Z,9.80
2019-04-03T01:22:37.266Z,9.70
2019-04-03T01:28:23.779Z,9.70
2019-04-03T01:38:07.011Z,9.90
2019-04-03T01:40:38.325Z,9.70
2019-04-03T01:43:31.772Z,9.60
2019-04-03T01:46:34.820Z,9.60
2019-04-03T01:49:04.265Z,9.80
2019-04-03T01:51:35.003Z,9.80
2019-04-03T01:54:03.964Z,9.70
2019-04-03T01:56:33.862Z,9.70
2019-04-03T02:11:59.600Z,9.70
2019-04-03T02:14:42.091Z,9.80
2019-04-03T02:17:12.047Z,9.90
2019-04-03T02:20:17.861Z,9.90
2019-04-03T02:23:42.058Z,9.90
2019-04-03T02:26:34.052Z,9.90
2019-04-03T02:29:04.827Z,9.80
2019-04-03T02:31:39.733Z,9.70
2019-04-03T02:34:49.822Z,9.80
2019-04-03T02:37:19.956Z,9.90
2019-04-03T02:46:19.433Z,9.70
2019-04-03T02:48:48.511Z,9.60
2019-04-03T03:00:43.878Z,9.50
2019-04-03T03:03:24.836Z,9.60
2019-04-03T03:06:01.326Z,9.60
2019-04-03T03:12:04.537Z,9.60
2019-04-03T03:14:38.824Z,9.40
2019-04-03T03:20:39.938Z,9.20
2019-04-03T03:24:03.710Z,9.20
2019-04-03T03:27:26.129Z,9.10
2019-04-03T03:40:23.674Z,9.00
2019-04-03T03:42:52.430Z,8.90
2019-04-03T03:45:47.185Z,8.80
2019-04-03T03:52:16.453Z,8.90
2019-04-03T03:54:49.644Z,9.10
2019-04-03T03:57:23.704Z,9.10
2019-04-03T04:00:27.415Z,9.30
2019-04-03T04:02:57.896Z,9.30
2019-04-03T04:09:01.428Z,9.10
2019-04-03T04:11:43.176Z,9.00
2019-04-03T04:14:12.039Z,9.00
2019-04-03T04:16:40.775Z,8.90
2019-04-03T04:19:08.918Z,8.90
2019-04-03T04:21:37.531Z,8.90
2019-04-03T04:24:05.664Z,8.80
2019-04-03T04:26:33.880Z,8.80
2019-04-03T04:29:02.239Z,8.80
2019-04-03T04:31:39.952Z,8.90
2019-04-03T04:34:09.214Z,9.00
2019-04-03T04:36:40.256Z,9.00
2019-04-03T04:39:11.507Z,8.90
2019-04-03T04:41:42.730Z,8.90
2019-04-03T04:44:13.946Z,8.70
2019-04-03T04:46:43.615Z,8.60
2019-04-03T04:49:10.989Z,8.50
2019-04-03T04:51:42.072Z,8.30
2019-04-03T04:54:10.559Z,8.30
2019-04-03T04:56:38.926Z,8.20
2019-04-03T04:59:07.282Z,8.20
2019-04-03T05:01:36.082Z,8.30
2019-04-03T05:04:04.290Z,8.40
2019-04-03T05:06:32.304Z,8.40
2019-04-03T05:09:05.356Z,8.40
2019-04-03T05:11:33.401Z,8.40
2019-04-03T05:14:01.702Z,8.40
2019-04-03T05:16:30.068Z,8.40
2019-04-03T05:19:09.050Z,8.50
2019-04-03T05:21:28.396Z,8.60
2019-04-03T05:24:00.861Z,8.70
2019-04-03T05:26:26.438Z,8.80
2019-04-03T05:28:57.641Z,8.80
2019-04-03T05:31:24.487Z,8.70
2019-04-03T05:33:55.468Z,8.60
2019-04-03T05:36:26.526Z,8.50
2019-04-03T05:38:54.697Z,8.40
2019-04-03T05:41:28.357Z,8.40
2019-04-03T05:44:01.455Z,8.50
2019-04-03T05:46:29.128Z,8.70
2019-04-03T05:48:57.062Z,8.80
2019-04-03T05:51:25.236Z,8.80
2019-04-03T05:53:54.072Z,8.80
2019-04-03T05:56:22.610Z,8.70
2019-04-03T05:58:56.705Z,8.70
2019-04-03T06:01:20.370Z,8.80
2019-04-03T06:03:48.459Z,8.80
2019-04-03T06:06:16.539Z,8.80
2019-04-03T06:08:46.029Z,8.70
2019-04-03T06:11:17.064Z,8.60
2019-04-03T06:13:47.476Z,8.80
2019-04-03T06:16:16.507Z,8.80
2019-04-03T06:18:47.263Z,8.80
2019-04-03T06:21:17.300Z,9.00
2019-04-03T06:23:45.195Z,9.10
2019-04-03T06:26:13.293Z,9.10
2019-04-03T06:28:46.690Z,9.10
2019-04-03T06:31:16.758Z,9.20
2019-04-03T06:33:44.805Z,9.20
2019-04-03T06:36:12.897Z,9.20
2019-04-03T06:38:41.029Z,9.20
2019-04-03T06:41:11.801Z,9.20
2019-04-03T06:43:42.574Z,9.20
2019-04-03T06:46:10.499Z,9.20
2019-04-03T06:48:38.420Z,9.20
2019-04-03T06:51:06.316Z,9.30
2019-04-03T06:53:34.289Z,9.30
2019-04-03T06:56:02.562Z,9.30
2019-04-03T06:58:38.251Z,9.40
2019-04-03T07:01:00.156Z,9.40
2019-04-03T07:03:35.007Z,9.50
2019-04-03T07:06:06.602Z,9.50
2019-04-03T07:08:36.125Z,9.40
2019-04-03T07:11:07.033Z,9.50
2019-04-03T07:13:34.949Z,9.50
2019-04-03T07:16:03.158Z,9.40
2019-04-03T07:18:31.113Z,9.40
2019-04-03T07:20:59.077Z,9.50
2019-04-03T07:23:28.976Z,9.50
2019-04-03T07:25:56.910Z,9.50
2019-04-03T07:28:24.833Z,9.50
2019-04-03T07:30:53.909Z,9.50
2019-04-03T07:33:22.019Z,9.60
2019-04-03T07:35:50.323Z,9.70
2019-04-03T07:38:21.849Z,9.60
2019-04-03T07:40:52.022Z,9.60
2019-04-03T07:43:22.181Z,9.60
2019-04-03T07:45:50.084Z,9.60
2019-04-03T07:48:18.246Z,9.70
2019-04-03T07:50:48.926Z,9.70
2019-04-03T07:53:17.810Z,9.60
2019-04-03T07:55:46.512Z,9.50
2019-04-03T07:58:17.589Z,9.50
2019-04-03T08:00:45.722Z,9.60
2019-04-03T08:03:13.695Z,9.50
2019-04-03T08:05:50.386Z,9.40
2019-04-03T08:08:21.447Z,9.50
2019-04-03T08:10:52.875Z,9.50
2019-04-03T08:13:21.088Z,9.60
2019-04-03T08:15:49.093Z,9.60
2019-04-03T08:18:16.991Z,9.60
2019-04-03T08:20:45.118Z,9.60
2019-04-03T08:23:13.401Z,9.60
2019-04-03T08:25:42.968Z,9.40
2019-04-03T08:28:11.104Z,9.40
2019-04-03T08:30:40.182Z,9.30
2019-04-03T08:33:15.970Z,9.20
2019-04-03T08:35:41.620Z,9.10
2019-04-03T08:38:12.402Z,9.00
2019-04-03T08:40:51.414Z,9.00
2019-04-03T08:43:21.139Z,8.80
2019-04-03T08:45:55.253Z,8.70
2019-04-03T08:48:26.273Z,8.60
2019-04-03T08:50:54.242Z,8.50
2019-04-03T08:53:22.313Z,8.60
2019-04-03T08:55:50.310Z,8.60
2019-04-03T08:58:20.820Z,8.70
2019-04-03T09:00:48.005Z,8.70
2019-04-03T09:03:16.167Z,8.70
2019-04-03T09:05:46.931Z,8.70
2019-04-03T09:08:14.888Z,8.70
2019-04-03T09:10:42.876Z,8.70
2019-04-03T09:13:17.396Z,8.60
2019-04-03T09:15:40.718Z,8.60
2019-04-03T09:18:08.567Z,8.70
2019-04-03T09:20:41.088Z,8.70
2019-04-03T09:23:09.205Z,8.80
2019-04-03T09:25:39.948Z,8.80
2019-04-03T09:28:10.358Z,8.80
2019-04-03T09:30:38.142Z,8.60
2019-04-03T09:33:06.094Z,8.40
2019-04-03T09:35:34.343Z,8.40
2019-04-03T09:38:05.387Z,8.40
2019-04-03T09:40:35.213Z,8.40
2019-04-03T09:43:03.729Z,8.50
2019-04-03T09:45:31.701Z,8.50
2019-04-03T09:47:59.642Z,8.50
2019-04-03T09:50:30.664Z,8.50
2019-04-03T09:52:58.569Z,8.40
2019-04-03T09:55:27.351Z,8.40
2019-04-03T09:57:55.476Z,8.50
2019-04-03T10:00:24.025Z,8.20
2019-04-03T10:02:52.149Z,8.20
2019-04-03T10:05:20.171Z,8.00
2019-04-03T10:07:48.209Z,7.80
2019-04-03T10:10:17.033Z,7.70
2019-04-03T10:12:48.931Z,7.70
2019-04-03T10:15:18.327Z,7.60
2019-04-03T10:17:46.681Z,7.50
2019-04-03T10:20:18.380Z,7.50
2019-04-03T10:22:46.905Z,7.40
2019-04-03T10:25:20.934Z,7.40
2019-04-03T10:27:48.930Z,7.30
2019-04-03T10:30:17.121Z,7.10
2019-04-03T10:32:45.017Z,7.20
2019-04-03T10:35:15.801Z,7.20
2019-04-03T10:37:46.070Z,7.20
2019-04-03T10:40:14.465Z,7.20
2019-04-03T10:42:42.446Z,7.20
2019-04-03T10:45:11.031Z,7.20
2019-04-03T10:47:43.389Z,7.30
2019-04-03T10:50:10.965Z,7.30
2019-04-03T10:52:39.170Z,7.40
2019-04-03T10:55:07.444Z,7.40
2019-04-03T10:57:35.667Z,7.40
2019-04-03T11:00:11.653Z,7.50
2019-04-03T11:02:42.370Z,7.60
2019-04-03T11:05:10.832Z,7.60
2019-04-03T11:07:41.817Z,7.70
2019-04-03T11:10:12.123Z,7.90
2019-04-03T11:12:40.050Z,8.10
2019-04-03T11:15:10.818Z,8.40
2019-04-03T11:17:40.897Z,8.10
2019-04-03T11:20:12.265Z,7.90
2019-04-03T11:22:42.129Z,8.00
2019-04-03T11:25:15.192Z,7.90
2019-04-03T11:27:44.502Z,7.90
2019-04-03T11:30:18.747Z,7.80
2019-04-03T11:32:46.350Z,7.80
2019-04-03T11:35:15.352Z,7.70
2019-04-03T11:37:43.759Z,7.70
2019-04-03T11:40:12.807Z,7.90
2019-04-03T11:42:41.670Z,7.90
2019-04-03T11:45:16.187Z,8.20
2019-04-03T11:47:45.891Z,8.50
2019-04-03T11:50:23.793Z,8.60
2019-04-03T11:52:51.709Z,8.60
2019-04-03T11:55:20.318Z,8.50
2019-04-03T11:57:51.429Z,8.70
2019-04-03T12:00:26.584Z,8.80
2019-04-03T12:02:55.597Z,8.80
2019-04-03T12:05:23.938Z,9.00
2019-04-03T12:07:56.642Z,9.10
2019-04-03T12:10:26.085Z,9.10
2019-04-03T12:12:54.864Z,9.40
2019-04-03T12:15:26.001Z,9.30
2019-04-03T12:17:56.839Z,9.20
2019-04-03T12:20:26.192Z,9.20
2019-04-03T12:22:55.013Z,9.40
2019-04-03T12:25:23.685Z,9.70
2019-04-03T12:27:51.597Z,9.90
2019-04-03T12:30:19.561Z,9.70
2019-04-03T12:32:49.873Z,9.70
2019-04-03T12:35:17.514Z,9.90
2019-04-03T12:37:49.465Z,9.70
2019-04-03T12:40:24.254Z,9.60
2019-04-03T12:42:54.902Z,9.40
2019-04-03T12:45:26.881Z,9.50
2019-04-03T12:47:55.706Z,9.70
2019-04-03T12:50:26.821Z,9.80
2019-04-03T12:52:53.275Z,10.30
2019-04-03T12:55:21.189Z,10.60
2019-04-03T12:57:52.020Z,10.80
2019-04-03T13:00:20.417Z,10.70
2019-04-03T13:02:50.089Z,10.50
2019-04-03T13:05:30.735Z,10.60
2019-04-03T13:08:01.946Z,10.60
2019-04-03T13:10:40.144Z,10.60
2019-04-03T13:13:00.002Z,10.40
2019-04-03T13:15:28.476Z,10.30
2019-04-03T13:18:02.513Z,10.70
2019-04-03T13:20:30.437Z,10.80
2019-04-03T13:23:01.855Z,11.30
2019-04-03T13:25:30.307Z,11.40
2019-04-03T13:27:58.623Z,11.50
2019-04-03T13:30:26.794Z,11.50
2019-04-03T13:32:59.554Z,11.70
2019-04-03T13:35:24.932Z,11.70
2019-04-03T13:37:53.115Z,11.50
2019-04-03T13:40:25.765Z,11.40
2019-04-03T13:42:56.577Z,11.20
2019-04-03T13:45:27.320Z,11.00
2019-04-03T13:47:58.325Z,11.00
2019-04-03T13:50:26.288Z,11.00
2019-04-03T13:52:54.181Z,10.90
2019-04-03T13:55:22.262Z,10.60
2019-04-03T13:57:51.038Z,10.30
2019-04-03T14:00:22.541Z,10.00
2019-04-03T14:02:49.412Z,9.70
2019-04-03T14:05:17.739Z,9.50
2019-04-03T14:07:46.144Z,9.60
2019-04-03T14:10:14.320Z,9.40
2019-04-03T14:12:44.560Z,9.20
2019-04-03T14:15:12.066Z,9.10
2019-04-03T14:17:39.997Z,9.20
2019-04-03T14:20:09.957Z,9.30
2019-04-03T14:22:38.363Z,9.20
2019-04-03T14:25:18.119Z,9.30
2019-04-03T14:27:39.560Z,9.30
2019-04-03T14:30:10.245Z,9.20
2019-04-03T14:32:46.642Z,9.00
2019-04-03T14:35:44.614Z,8.80
2019-04-03T14:37:49.841Z,8.80
2019-04-03T14:40:17.776Z,8.80
2019-04-03T14:42:52.182Z,8.60
2019-04-03T14:45:20.114Z,8.40
2019-04-03T14:47:50.910Z,8.30
2019-04-03T14:50:22.460Z,8.20
2019-04-03T14:52:50.495Z,8.30
2019-04-03T14:55:28.066Z,8.30
2019-04-03T14:57:55.618Z,8.10
2019-04-03T15:00:30.288Z,8.10
2019-04-03T15:02:59.402Z,8.20
2019-04-03T15:05:27.369Z,8.20
2019-04-03T15:07:55.355Z,8.20
2019-04-03T15:10:23.333Z,8.20
2019-04-03T15:12:51.246Z,8.10
2019-04-03T15:15:19.229Z,8.10
2019-04-03T15:17:49.921Z,8.10
2019-04-03T15:20:18.960Z,8.00
2019-04-03T15:22:47.661Z,8.00
2019-04-03T15:25:16.188Z,7.90
2019-04-03T15:27:45.324Z,7.70
2019-04-03T15:30:13.519Z,7.60
2019-04-03T15:32:41.485Z,7.70
2019-04-03T15:35:09.547Z,7.70
2019-04-03T15:37:42.207Z,7.60
2019-04-03T15:40:19.054Z,7.40
2019-04-03T15:42:47.071Z,7.30
2019-04-03T15:45:15.609Z,7.20
2019-04-03T15:47:47.721Z,7.10
2019-04-03T15:50:16.346Z,7.10
2019-04-03T15:52:48.462Z,7.00
2019-04-03T15:55:17.704Z,6.90
2019-04-03T15:57:45.623Z,6.80
2019-04-03T16:00:17.158Z,6.70
2019-04-03T16:02:51.324Z,6.60
2019-04-03T16:05:19.380Z,6.70
2019-04-03T16:07:48.419Z,6.70
2019-04-03T16:10:16.461Z,6.60
2019-04-03T16:12:44.509Z,6.70
2019-04-03T16:15:14.014Z,6.70
2019-04-03T16:17:42.209Z,6.80
2019-04-03T16:20:17.593Z,6.80
2019-04-03T16:22:49.259Z,6.80
2019-04-03T16:25:20.283Z,6.50
2019-04-03T16:27:48.741Z,6.50
2019-04-03T16:30:18.744Z,6.50
2019-04-03T16:32:46.802Z,6.50
2019-04-03T16:35:15.291Z,6.50
2019-04-03T16:37:44.753Z,6.40
2019-04-03T16:40:14.829Z,6.50
2019-04-03T16:42:47.595Z,6.40
2019-04-03T16:45:14.865Z,6.40
2019-04-03T16:47:47.100Z,6.40
2019-04-03T16:50:16.265Z,6.30
2019-04-03T16:52:46.833Z,6.40
2019-04-03T16:55:15.897Z,6.40
2019-04-03T16:57:57.519Z,6.40
2019-04-03T17:00:25.091Z,6.40
2019-04-03T17:02:59.500Z,6.40
2019-04-03T17:05:28.945Z,6.40
2019-04-03T17:07:57.698Z,6.30
2019-04-03T17:10:26.072Z,6.30
2019-04-03T17:12:56.245Z,6.30
2019-04-03T17:15:24.871Z,6.20
2019-04-03T17:17:53.656Z,6.20
2019-04-03T17:20:24.236Z,6.30
2019-04-03T17:22:55.853Z,6.20
2019-04-03T17:25:38.211Z,6.10
2019-04-03T17:27:59.783Z,6.00
2019-04-03T17:30:29.605Z,6.10
2019-04-03T17:32:58.228Z,6.10
2019-04-03T17:35:29.062Z,6.00
2019-04-03T17:38:00.467Z,6.00
2019-04-03T17:40:27.562Z,6.00
2019-04-03T17:42:57.744Z,6.00
2019-04-03T17:45:28.090Z,6.00
2019-04-03T17:48:00.257Z,6.10
2019-04-03T17:50:30.315Z,6.10
2019-04-03T17:52:58.727Z,6.10
2019-04-03T17:55:26.968Z,6.00
2019-04-03T17:57:59.227Z,6.00
2019-04-03T18:00:28.249Z,6.10
2019-04-03T18:02:59.615Z,5.90
2019-04-03T18:05:33.665Z,6.00
2019-04-03T18:08:01.943Z,6.00
2019-04-03T18:10:30.257Z,5.80
2019-04-03T18:12:58.814Z,5.80
2019-04-03T18:15:27.514Z,5.70
2019-04-03T18:17:56.651Z,5.90
2019-04-03T18:20:24.948Z,5.70
2019-04-03T18:22:53.410Z,5.90
2019-04-03T18:25:24.715Z,5.80
2019-04-03T18:27:57.574Z,5.80
2019-04-03T18:30:25.841Z,5.80
2019-04-03T18:32:54.126Z,5.80
2019-04-03T18:35:25.592Z,5.80
2019-04-03T18:37:52.421Z,5.90
2019-04-03T18:40:20.642Z,5.90
2019-04-03T18:42:50.262Z,5.90
2019-04-03T18:45:25.376Z,5.90
2019-04-03T18:47:50.914Z,6.00
2019-04-03T18:50:18.506Z,6.00
2019-04-03T18:52:56.419Z,6.00
2019-04-03T18:55:24.662Z,5.90
2019-04-03T18:57:52.968Z,5.80
2019-04-03T19:00:21.319Z,5.90
2019-04-03T19:02:50.067Z,6.00
2019-04-03T19:05:18.677Z,5.90
2019-04-03T19:07:47.096Z,5.80
2019-04-03T19:10:18.889Z,5.80
2019-04-03T19:12:47.804Z,5.80
2019-04-03T19:15:21.693Z,5.80
2019-04-03T19:17:59.474Z,5.70
2019-04-03T19:20:17.934Z,5.70
2019-04-03T19:22:48.817Z,5.70
2019-04-03T19:25:18.188Z,5.60
2019-04-03T19:27:49.770Z,5.60
2019-04-03T19:30:18.443Z,5.60
2019-04-03T19:32:48.150Z,5.60
2019-04-03T19:35:19.029Z,5.60
2019-04-03T19:37:49.631Z,5.60
2019-04-03T19:40:21.139Z,5.60
2019-04-03T19:42:52.533Z,5.60
2019-04-03T19:45:22.642Z,5.60
2019-04-03T19:47:50.830Z,5.60
2019-04-03T19:50:19.311Z,5.50
2019-04-03T19:52:48.299Z,5.50
2019-04-03T19:55:19.245Z,5.50
2019-04-03T19:57:48.205Z,5.40
2019-04-03T20:00:19.736Z,5.40
2019-04-03T20:02:48.880Z,5.40
2019-04-03T20:05:20.040Z,5.30
2019-04-03T20:07:48.344Z,5.30
2019-04-03T20:10:17.401Z,5.40
2019-04-03T20:12:46.116Z,5.40
2019-04-03T20:15:14.422Z,5.40
2019-04-03T20:17:42.655Z,5.30
2019-04-03T20:20:11.413Z,5.40
2019-04-03T20:22:42.631Z,5.40
2019-04-03T20:25:15.111Z,5.40
2019-04-03T20:27:46.723Z,5.30
2019-04-03T20:30:13.311Z,5.30
2019-04-03T20:32:42.694Z,5.40
2019-04-03T20:35:17.959Z,5.40
2019-04-03T20:37:45.598Z,5.40
2019-04-03T20:40:19.773Z,5.30
2019-04-03T20:42:48.097Z,5.40
2019-04-03T20:45:18.797Z,5.40
2019-04-03T20:47:46.367Z,5.30
2019-04-03T20:50:16.153Z,5.30
2019-04-03T20:52:46.177Z,5.30
2019-04-03T20:55:14.855Z,5.20
2019-04-03T20:57:54.973Z,5.40
2019-04-03T21:00:13.562Z,5.30
2019-04-03T21:02:42.175Z,5.30
2019-04-03T21:05:11.157Z,5.30
2019-04-03T21:07:39.419Z,5.20
2019-04-03T21:10:07.801Z,5.20
2019-04-03T21:12:36.399Z,5.20
2019-04-03T21:15:08.715Z,5.20
2019-04-03T21:17:34.631Z,5.20
2019-04-03T21:20:02.716Z,5.10
2019-04-03T21:22:32.350Z,5.10
2019-04-03T21:25:00.525Z,5.00
2019-04-03T21:27:28.492Z,5.00
2019-04-03T21:29:58.256Z,5.10
2019-04-03T21:32:26.942Z,5.10
2019-04-03T21:34:55.646Z,5.10
2019-04-03T21:37:24.070Z,5.10
2019-04-03T21:39:52.943Z,5.10
2019-04-03T21:42:20.841Z,5.10
2019-04-03T21:44:48.765Z,5.10
2019-04-03T21:47:16.652Z,5.10
2019-04-03T21:49:47.400Z,5.10
2019-04-03T21:52:16.081Z,5.10
2019-04-03T21:54:43.990Z,5.20
2019-04-03T21:57:12.139Z,5.00
2019-04-03T21:59:41.749Z,5.00
2019-04-03T22:02:09.796Z,4.90
2019-04-03T22:04:37.786Z,5.00
2019-04-03T22:07:05.754Z,5.10
2019-04-03T22:09:35.724Z,4.90
2019-04-03T22:12:05.700Z,5.00
2019-04-03T22:14:33.361Z,5.00
2019-04-03T22:17:02.509Z,5.10
2019-04-03T22:19:30.517Z,5.00
2019-04-03T22:21:58.425Z,4.90
2019-04-03T22:24:27.356Z,5.00
2019-04-03T22:26:55.250Z,5.00
2019-04-03T22:29:23.137Z,5.00
2019-04-03T22:31:53.768Z,5.00
2019-04-03T22:34:20.712Z,5.10
2019-04-03T22:36:48.838Z,5.10
2019-04-03T22:39:17.045Z,5.10
2019-04-03T22:41:46.254Z,5.10
2019-04-03T22:44:17.227Z,5.10
2019-04-03T22:46:45.110Z,5.10
2019-04-03T22:49:13.001Z,5.20
2019-04-03T22:51:40.884Z,5.10
2019-04-03T22:54:10.845Z,4.90
2019-04-03T22:56:38.401Z,4.90
2019-04-03T22:59:06.278Z,4.90
2019-04-03T23:01:34.421Z,5.00
2019-04-03T23:04:04.854Z,5.00
2019-04-03T23:06:32.014Z,5.00
2019-04-03T23:09:01.219Z,4.90
2019-04-03T23:11:31.946Z,5.00
2019-04-03T23:13:59.132Z,5.10
2019-04-03T23:16:27.168Z,4.90
2019-04-03T23:18:56.075Z,5.10
2019-04-03T23:21:24.278Z,5.10
2019-04-03T23:23:52.334Z,5.10
2019-04-03T23:26:20.421Z,5.20
2019-04-03T23:28:48.437Z,5.30
2019-04-03T23:31:16.705Z,5.10
2019-04-03T23:33:45.945Z,5.20
2019-04-03T23:36:14.793Z,5.10
2019-04-03T23:38:42.833Z,5.10
2019-04-03T23:41:11.089Z,5.10
2019-04-03T23:43:39.512Z,5.10
2019-04-03T23:46:08.123Z,5.10
2019-04-03T23:48:36.227Z,5.00
2019-04-03T23:51:04.273Z,5.00
2019-04-03T23:53:32.737Z,5.10
2019-04-03T23:56:00.796Z,5.10
2019-04-03T23:58:29.117Z,5.20
